Flight Track Log - Related Links

Times and Time Zones

All times are in EDT time to prevent confusion due to time zone crossing. See the N75AW flight status page for this flight to view local times or setup timezone preferences in your user account.


Time Position Orientation Groundspeed Altitude Reporting Facility
EDT Latitude Longitude Course Direction KTS MPH feet Rate Location/Type
Sun 06:00:15 PM 41.2844 -79.8842 191° South 180 207 4,600  Level Cleveland Center
Sun 06:01:15 PM 41.2325 -79.9011 194° South 185 213 6,100 1,633 Climbing Cleveland Center
Sun 06:03:15 PM 41.1328 -79.9297 192° South 190 219 9,500 1,533 Climbing Cleveland Center
Sun 06:04:15 PM 41.0889 -79.9411 191° South 185 213 10,700 1,350 Climbing Cleveland Center
Sun 06:05:00 PM 40.9330 -79.9279 191° South  Level Estimated
Sun 06:05:15 PM 41.0369 -79.9556 192° South 185 213 12,200  Level Cleveland Center
Sun 06:06:15 PM 40.9847 -79.9697 192° South 185 213 13,700 1,350 Climbing Cleveland Center
Sun 06:07:15 PM 40.9267 -79.9867 192° South 191 220 14,900 1,550 Climbing Cleveland Center
Sun 06:08:15 PM 40.8744 -80.0008 192° South 203 234 16,800 1,100 Climbing Cleveland Center
Sun 06:09:15 PM 40.8078 -80.0208 193° South 203 234 17,100 150 Climbing Cleveland Center
Sun 06:10:15 PM 40.7331 -80.0433 193° South 236 272 17,100 150 Level Cleveland Center
Sun 06:11:15 PM 40.6558 -80.0658 192° South 272 313 17,400 650 Climbing Cleveland Center
Sun 06:12:15 PM 40.5831 -80.0828 190° South 280 322 18,400 1,000 Climbing Cleveland Center
Sun 06:13:15 PM 40.5144 -80.1025 192° South 268 308 19,400 800 Climbing Cleveland Center
Sun 06:14:15 PM 40.4539 -80.1219 194° South 256 295 20,000 600 Climbing Cleveland Center
Sun 06:15:15 PM 40.3853 -80.1389 191° South 256 295 20,600 650 Climbing Cleveland Center
Sun 06:16:15 PM 40.3061 -80.1611 192° South 256 295 21,300 800 Climbing Cleveland Center
Sun 06:17:15 PM 40.2417 -80.1806 193° South 256 295 22,200 900 Climbing Cleveland Center
Sun 06:18:15 PM 40.1750 -80.1972 191° South 248 285 23,100 800 Climbing Cleveland Center
Sun 06:19:15 PM 40.1125 -80.2139 192° South 242 278 23,800 500 Climbing Cleveland Center
Sun 06:20:15 PM 40.0458 -80.2333 193° South 237 273 24,100 150 Climbing Cleveland Center
Sun 06:21:15 PM 39.9728 -80.2525 191° South 249 287 24,100  Level Cleveland Center
Sun 06:22:15 PM 39.8978 -80.2747 193° South 264 304 24,100  Level Cleveland Center
Sun 06:23:15 PM 39.8186 -80.2967 192° South 275 316 24,100  Level Cleveland Center
Sun 06:24:15 PM 39.7417 -80.3186 192° South 288 331 24,100  Level Cleveland Center
Sun 06:25:15 PM 39.6625 -80.3403 192° South 293 337 24,100  Level Cleveland Center
Sun 06:26:15 PM 39.5833 -80.3594 191° South 293 337 24,100  Level Cleveland Center
Sun 06:27:14 PM 39.5153 -80.3778 192° South 292 336 24,100  Level Indianapolis Center
Sun 06:28:16 PM 39.4189 -80.4033 192° South 295 339 24,100  Level Indianapolis Center
Sun 06:29:18 PM 39.3403 -80.4264 193° South 291 335 24,100  Level Indianapolis Center
Sun 06:30:20 PM 39.2608 -80.4469 191° South 291 335 24,100  Level Indianapolis Center
Sun 06:31:22 PM 39.1822 -80.4678 192° South 289 333 24,100  Level Indianapolis Center
Sun 06:32:24 PM 39.1033 -80.4892 192° South 288 331 24,100  Level Indianapolis Center
Sun 06:33:26 PM 39.0231 -80.5103 192° South 291 335 24,100  Level Indianapolis Center
Sun 06:34:28 PM 38.9433 -80.5319 192° South 292 336 24,100  Level Indianapolis Center
Sun 06:35:30 PM 38.8497 -80.5575 192° South 288 331 24,100  Level Indianapolis Center
Sun 06:36:32 PM 38.7717 -80.5786 192° South 286 329 24,100  Level Indianapolis Center
Sun 06:37:34 PM 38.6931 -80.5983 191° South 286 329 24,100  Level Indianapolis Center
Sun 06:38:36 PM 38.6144 -80.6197 192° South 287 330 24,100  Level Indianapolis Center
Sun 06:39:38 PM 38.5367 -80.6400 192° South 285 328 24,100  Level Indianapolis Center
Sun 06:40:40 PM 38.4581 -80.6608 192° South 287 330 24,100  Level Indianapolis Center
Sun 06:41:42 PM 38.3800 -80.6808 191° South 286 329 24,100  Level Indianapolis Center
Sun 06:42:44 PM 38.2847 -80.7058 192° South 289 333 24,100  Level Indianapolis Center
Sun 06:43:46 PM 38.2053 -80.7264 191° South 290 334 24,100  Level Indianapolis Center
Sun 06:44:49 PM 38.1272 -80.7547 196° South 290 334 24,100  Level Indianapolis Center
Sun 06:45:51 PM 38.0519 -80.7908 201° Southwest 289 333 24,100  Level Indianapolis Center
Sun 06:46:53 PM 37.9761 -80.8256 200° South 288 331 24,100  Level Indianapolis Center
Sun 06:47:55 PM 37.8994 -80.8583 199° South 288 331 24,100  Level Indianapolis Center
Sun 06:48:57 PM 37.8222 -80.8839 195° South 287 330 24,100  Level Indianapolis Center
Sun 06:49:59 PM 37.7394 -80.8994 188° South 286 329 24,100  Level Indianapolis Center
Sun 06:51:01 PM 37.6475 -80.9197 190° South 289 333 24,100  Level Indianapolis Center
Sun 06:52:03 PM 37.5719 -80.9400 192° South 287 330 24,100  Level Indianapolis Center
Sun 06:53:05 PM 37.4950 -80.9572 190° South 288 331 24,100  Level Indianapolis Center
Sun 06:54:07 PM 37.4042 -80.9806 192° South 288 331 24,100  Level Indianapolis Center
Sun 06:55:09 PM 37.3283 -80.9981 190° South 286 329 24,100  Level Indianapolis Center
Sun 06:56:11 PM 37.2519 -81.0178 192° South 287 330 24,100  Level Indianapolis Center
Sun 06:57:13 PM 37.1606 -81.0392 191° South 288 331 24,100  Level Indianapolis Center
Sun 06:57:45 PM 37.1125 -81.0508 191° South 294 338 24,100  Level Atlanta Center
Sun 06:58:45 PM 37.0336 -81.0694 191° South 294 338 24,100  Level Atlanta Center
Sun 06:59:45 PM 36.9550 -81.0906 192° South 294 338 24,100  Level Atlanta Center
Sun 07:00:45 PM 36.8867 -81.1089 192° South 294 338 24,100  Level Atlanta Center
Sun 07:01:45 PM 36.8058 -81.1272 190° South 294 338 24,100  Level Atlanta Center
Sun 07:02:45 PM 36.7250 -81.1458 190° South 287 330 24,100  Level Atlanta Center
Sun 07:03:45 PM 36.6461 -81.1642 191° South 287 330 24,100  Level Atlanta Center
Sun 07:04:45 PM 36.5672 -81.1850 192° South 292 336 24,100  Level Atlanta Center
Sun 07:05:45 PM 36.4864 -81.2036 190° South 292 336 24,100  Level Atlanta Center
Sun 07:06:45 PM 36.4075 -81.2217 190° South 292 336 24,100  Level Atlanta Center
Sun 07:07:45 PM 36.3372 -81.2397 192° South 292 336 24,100  Level Atlanta Center
Sun 07:08:45 PM 36.2561 -81.2606 192° South 292 336 24,100  Level Atlanta Center
Sun 07:09:45 PM 36.1753 -81.2789 190° South 292 336 24,100  Level Atlanta Center
Sun 07:10:45 PM 36.0964 -81.2994 192° South 292 336 24,100  Level Atlanta Center
Sun 07:11:45 PM 36.0178 -81.3175 191° South 292 336 24,100  Level Atlanta Center
Sun 07:12:45 PM 35.9389 -81.3381 192° South 292 336 24,100  Level Atlanta Center
Sun 07:13:45 PM 35.8600 -81.3586 192° South 292 336 24,100  Level Atlanta Center
Sun 07:14:45 PM 35.7811 -81.3767 191° South 292 336 24,100  Level Atlanta Center
Sun 07:15:45 PM 35.7022 -81.3969 192° South 292 336 24,100  Level Atlanta Center
Sun 07:16:45 PM 35.6214 -81.4150 190° South 292 336 24,100  Level Atlanta Center
Sun 07:17:45 PM 35.5406 -81.4356 192° South 292 336 24,100  Level Atlanta Center
Sun 07:18:45 PM 35.4594 -81.4533 190° South 292 336 24,100  Level Atlanta Center
Sun 07:19:45 PM 35.3783 -81.4711 190° South 292 336 24,100  Level Atlanta Center
Sun 07:20:45 PM 35.2914 -81.4917 191° South 292 336 24,100  Level Atlanta Center
Sun 07:21:45 PM 35.2083 -81.5119 191° South 297 342 24,100  Level Atlanta Center
Sun 07:22:45 PM 35.1314 -81.5322 192° South 297 342 24,100  Level Atlanta Center
Sun 07:23:45 PM 35.0503 -81.5497 190° South 297 342 24,100  Level Atlanta Center
Sun 07:24:45 PM 34.9714 -81.5675 190° South 291 335 24,100  Level Atlanta Center
Sun 07:25:45 PM 34.8947 -81.5875 192° South 291 335 24,100  Level Atlanta Center
Sun 07:26:45 PM 34.8117 -81.6050 190° South 296 341 24,100  Level Atlanta Center
Sun 07:27:45 PM 34.7347 -81.6225 191° South 296 341 24,100  Level Atlanta Center
Sun 07:28:45 PM 34.6536 -81.6400 190° South 296 341 24,100  Level Atlanta Center
Sun 07:29:45 PM 34.5831 -81.6544 190° South 296 341 24,100 100 Level Atlanta Center
Sun 07:30:45 PM 34.5061 -81.6744 192° South 296 341 24,300  Climbing Atlanta Center
Sun 07:31:45 PM 34.4231 -81.6892 188° South 296 341 24,100 -100 Descending Atlanta Center
Sun 07:32:45 PM 34.3461 -81.7067 191° South 296 341 24,100  Level Atlanta Center
Sun 07:33:45 PM 34.2650 -81.7289 193° South 296 341 24,100  Level Atlanta Center
Sun 07:34:45 PM 34.1861 -81.7436 189° South 296 341 24,100  Level Atlanta Center
Sun 07:35:45 PM 34.1072 -81.7633 192° South 296 341 24,100  Level Atlanta Center
Sun 07:36:45 PM 34.0261 -81.7806 190° South 296 341 24,100  Level Atlanta Center
Sun 07:37:45 PM 33.9469 -81.8000 192° South 296 341 24,100  Level Atlanta Center
Sun 07:38:45 PM 33.8681 -81.8172 190° South 296 341 24,100  Level Atlanta Center
Sun 07:39:45 PM 33.7892 -81.8367 192° South 296 341 24,100  Level Atlanta Center
Sun 07:40:45 PM 33.7100 -81.8511 189° South 296 341 24,100  Level Atlanta Center
Sun 07:41:45 PM 33.6289 -81.8708 191° South 296 341 24,100  Level Atlanta Center
Sun 07:42:45 PM 33.5500 -81.8903 192° South 296 341 24,100  Level Atlanta Center
Sun 07:43:45 PM 33.4711 -81.9072 190° South 296 341 24,100  Level Atlanta Center
Sun 07:44:45 PM 33.3919 -81.9239 190° South 296 341 24,100  Level Atlanta Center
Sun 07:45:45 PM 33.3131 -81.9408 190° South 296 341 24,100  Level Atlanta Center
Sun 07:46:45 PM 33.2339 -81.9603 192° South 296 341 24,100  Level Atlanta Center
Sun 07:47:45 PM 33.1508 -81.9794 191° South 296 341 24,100  Level Atlanta Center
Sun 07:48:45 PM 33.0739 -81.9986 192° South 291 335 24,100  Level Atlanta Center
Sun 07:49:45 PM 32.9947 -82.0128 189° South 296 341 24,100  Level Atlanta Center
Sun 07:50:45 PM 32.9158 -82.0294 190° South 296 341 24,100  Level Atlanta Center
Sun 07:51:45 PM 32.8367 -82.0486 191° South 296 341 24,100  Level Atlanta Center
Sun 07:52:45 PM 32.7597 -82.0653 190° South 296 341 24,100  Level Atlanta Center
Sun 07:54:42 PM 32.6044 -82.1008 191° South 292 336 24,100  Level Jacksonville Center
Sun 07:55:42 PM 32.5253 -82.1164 189° South 292 336 24,100  Level Jacksonville Center
Sun 07:56:42 PM 32.4461 -82.1344 191° South 292 336 24,100  Level Jacksonville Center
Sun 07:57:42 PM 32.3586 -82.1597 194° South 296 341 24,100  Level Jacksonville Center
Sun 07:58:43 PM 32.2772 -82.1750 189° South 296 341 24,100  Level Jacksonville Center
Sun 07:59:42 PM 32.2042 -82.1903 190° South 291 335 24,100  Level Jacksonville Center
Sun 08:00:42 PM 32.1167 -82.2083 190° South 297 342 24,100  Level Jacksonville Center
Sun 08:01:42 PM 32.0436 -82.2089 180° South 286 329 24,100  Level Jacksonville Center
Sun 08:02:43 PM 31.9558 -82.2094 180° South 292 336 24,100  Level Jacksonville Center
Sun 08:03:42 PM 31.8725 -82.2125 182° South 292 336 24,100  Level Jacksonville Center
Sun 08:04:42 PM 31.8014 -82.2131 180° South 285 328 24,100  Level Jacksonville Center
Sun 08:05:42 PM 31.7117 -82.2161 182° South 291 335 24,100  Level Jacksonville Center
Sun 08:06:42 PM 31.6322 -82.2019 171° South 291 335 24,100  Level Jacksonville Center
Sun 08:07:42 PM 31.5611 -82.1856 169° South 291 335 24,100  Level Jacksonville Center
Sun 08:08:42 PM 31.4839 -82.1692 170° South 291 335 24,100  Level Jacksonville Center
Sun 08:09:42 PM 31.4044 -82.1672 179° South 291 335 24,100  Level Jacksonville Center
Sun 08:10:42 PM 31.3253 -82.1750 185° South 291 335 24,100  Level Jacksonville Center
Sun 08:11:42 PM 31.2458 -82.1806 183° South 291 335 24,100  Level Jacksonville Center
Sun 08:12:42 PM 31.1644 -82.1836 182° South 291 335 24,100  Level Jacksonville Center
Sun 08:13:42 PM 31.0850 -82.1867 182° South 291 335 24,100  Level Jacksonville Center
Sun 08:14:42 PM 31.0058 -82.1969 186° South 291 335 24,100  Level Jacksonville Center
Sun 08:15:42 PM 30.9264 -82.2000 182° South 291 335 24,100  Level Jacksonville Center
Sun 08:16:42 PM 30.8472 -82.2031 182° South 291 335 24,100  Level Jacksonville Center
Sun 08:17:42 PM 30.7658 -82.2061 182° South 291 335 24,100  Level Jacksonville Center
Sun 08:18:42 PM 30.6844 -82.2114 183° South 291 335 24,100  Level Jacksonville Center
Sun 08:19:42 PM 30.6050 -82.2192 185° South 291 335 24,100  Level Jacksonville Center
Sun 08:20:42 PM 30.5258 -82.2197 180° South 291 335 24,100  Level Jacksonville Center
Sun 08:21:42 PM 30.4422 -82.2228 182° South 291 335 24,100  Level Jacksonville Center
Sun 08:22:42 PM 30.3650 -82.2281 183° South 291 335 24,100  Level Jacksonville Center
Sun 08:23:42 PM 30.2836 -82.2333 183° South 291 335 24,100  Level Jacksonville Center
Sun 08:24:42 PM 30.2022 -82.2389 183° South 291 335 24,100  Level Jacksonville Center
Sun 08:25:42 PM 30.1247 -82.2178 167° South 291 335 24,100  Level Jacksonville Center
Sun 08:26:42 PM 30.0475 -82.1942 165° South 291 335 24,100  Level Jacksonville Center
Sun 08:27:42 PM 29.9575 -82.1781 171° South 291 335 24,100 -200 Level Jacksonville Center
Sun 08:28:42 PM 29.8803 -82.1594 168° South 296 341 23,700 -500 Descending Jacksonville Center
Sun 08:29:42 PM 29.7967 -82.1364 167° South 296 341 23,100 -300 Descending Jacksonville Center
Sun 08:30:42 PM 29.7108 -82.1106 165° South 306 352 23,100  Level Jacksonville Center
Sun 08:31:42 PM 29.6314 -82.0872 166° South 306 352 23,100  Level Jacksonville Center
Sun 08:32:42 PM 29.5497 -82.0642 166° South 301 346 23,100  Level Jacksonville Center
Sun 08:33:42 PM 29.4703 -82.0458 169° South 296 341 23,100  Level Jacksonville Center
Sun 08:34:42 PM 29.3908 -82.0297 170° South 296 341 23,100  Level Jacksonville Center
Sun 08:35:42 PM 29.3114 -82.0067 166° South 296 341 23,100  Level Jacksonville Center
Sun 08:36:42 PM 29.2319 -81.9858 167° South 296 341 23,100  Level Jacksonville Center
Sun 08:37:42 PM 29.1525 -81.9606 164° South 296 341 23,100  Level Jacksonville Center
Sun 08:38:42 PM 29.0772 -81.9397 166° South 296 341 23,100  Level Jacksonville Center
Sun 08:39:43 PM 28.9956 -81.9217 169° South 296 341 23,100  Level Jacksonville Center
Sun 08:40:42 PM 28.9183 -81.9033 168° South 296 341 23,100  Level Jacksonville Center
Sun 08:41:42 PM 28.8408 -81.8806 166° South 291 335 23,100  Level Jacksonville Center
Sun 08:42:42 PM 28.7636 -81.8600 167° South 291 335 23,100  Level Jacksonville Center
Sun 08:45:14 PM 28.5719 -81.8128 168° South 291 335 23,100  Level Miami Center
Sun 08:46:14 PM 28.4953 -81.7931 167° South 291 335 23,100  Level Miami Center
Sun 08:47:14 PM 28.4169 -81.7731 167° South 297 342 23,100  Level Miami Center
Sun 08:48:14 PM 28.3361 -81.7575 170° South 302 348 23,100  Level Miami Center
Sun 08:49:14 PM 28.2575 -81.7378 168° South 307 353 23,100  Level Miami Center
Sun 08:50:14 PM 28.1789 -81.7178 167° South 300 345 23,100  Level Miami Center
Sun 08:51:14 PM 28.1003 -81.6981 168° South 294 338 23,100 -50 Level Miami Center
Sun 08:52:14 PM 28.0236 -81.6806 169° South 294 338 23,000 -900 Descending Miami Center
Sun 08:53:14 PM 27.9386 -81.6628 170° South 300 345 21,300 -1,700 Descending Miami Center
Sun 08:54:14 PM 27.8414 -81.6378 167° South 319 367 19,600 -1,350 Descending Miami Center
Sun 08:55:14 PM 27.7606 -81.6178 168° South 319 367 18,600 -1,100 Descending Miami Center
Sun 08:56:14 PM 27.6842 -81.5983 167° South 313 360 17,400 -1,250 Descending Miami Center
Sun 08:57:14 PM 27.6033 -81.5783 168° South 313 360 16,100 -1,300 Descending Miami Center
Sun 08:58:14 PM 27.5225 -81.5611 169° South 313 360 14,800 -1,250 Descending Miami Center
Sun 08:59:14 PM 27.4439 -81.5417 168° South 303 349 13,600 -1,150 Descending Miami Center
Sun 09:00:14 PM 27.3692 -81.5244 168° South 291 335 12,500 -1,150 Descending Miami Center
Sun 09:01:14 PM 27.2947 -81.5050 167° South 285 328 11,300 -1,200 Descending Miami Center
Sun 09:02:14 PM 27.2139 -81.4856 168° South 273 314 10,100 -1,150 Descending Miami Center
Sun 09:03:14 PM 27.1414 -81.4686 168° South 273 314 9,000 -550 Descending Miami Center
Sun 09:04:14 PM 27.0731 -81.4519 168° South 273 314 9,000  Level Miami Center
Sun 09:05:14 PM 27.0119 -81.4658 191° South 241 277 9,000  Level Miami Center
Sun 09:06:14 PM 26.9506 -81.4936 202° Southwest 237 273 9,000  Level Miami Center
Sun 09:07:14 PM 26.8872 -81.5167 198° South 237 273 9,000  Level Miami Center
Sun 09:08:14 PM 26.8242 -81.5353 195° South 232 267 9,000  Level Miami Center
Sun 09:09:14 PM 26.7628 -81.5583 199° South 232 267 9,000 -450 Level Miami Center
Sun 09:10:14 PM 26.6994 -81.5836 200° South 238 274 8,100 -900 Descending Miami Center
Sun 09:12:00 PM 26.5692 -81.6295 193° South  Level Estimated
Sun 09:19:00 PM 26.1500 -81.7667 199° South  Level FlightAware Approximate
Sun 09:20:00 PM 26.1524 -81.7756 199° South  Level Estimated
Sun 09:21:00 PM 26.1524 -81.7756 199° South  Level Estimated
Sun 09:22:00 PM 26.1524 -81.7756 199° South  Level Estimated
Sun 09:23:00 PM 26.1524 -81.7756 199° South  Level Estimated
Sun 09:24:00 PM 26.1524 -81.7756 199° South  Level Estimated
Sun 09:25:00 PM 26.1524 -81.7756 199° South  Level Estimated
Sun 09:26:00 PM 26.1524 -81.7756 199° South  Level Estimated
Sun 09:27:00 PM 26.1524 -81.7756 199° South  Level Estimated
Sun 09:28:00 PM 26.1524 -81.7756 199° South  Level Estimated
Sun 09:29:00 PM 26.1524 -81.7756 199° South  Level Estimated

Login

Don't have an account? Register now (free) for customized features, flight alerts, and more!